Time;durP1;ratioP1;P1;durP2;ratioP2;P2;SDS_P1;SDS_P2;PMS_P1;PMS_P2;Temp;Humidity;BMP_temperature;BMP_pressure;BME280_temperature;BME280_humidity;BME280_pressure;Samples;Min_cycle;Max_cycle;Signal;HPM_P1;HPM_P2
2021/10/21 00:02:14;;;;;;;2.25;1.63;;;15.50;99.90;;;;;;5009829;28;20033;-43
2021/10/21 00:04:40;;;;;;;3.47;1.52;;;15.50;99.90;;;;;;5011031;28;20045;-46
2021/10/21 00:07:05;;;;;;;2.22;2.00;;;15.60;99.90;;;;;;5009918;28;20521;-42
2021/10/21 00:09:31;;;;;;;2.22;2.00;;;15.50;99.90;;;;;;5011017;28;20038;-40
2021/10/21 00:11:57;;;;;;;3.58;2.53;;;15.50;99.90;;;;;;5009379;28;20040;-43
2021/10/21 00:14:22;;;;;;;4.80;2.75;;;15.40;99.90;;;;;;5010821;28;20521;-43
2021/10/21 00:16:49;;;;;;;8.82;3.17;;;15.30;99.90;;;;;;5009928;28;20034;-46
2021/10/21 00:19:14;;;;;;;3.15;2.85;;;15.30;99.90;;;;;;5010655;28;20026;-49
2021/10/21 00:21:40;;;;;;;3.17;2.85;;;15.30;99.90;;;;;;5010583;28;20172;-43
2021/10/21 00:24:05;;;;;;;5.65;3.00;;;15.30;99.90;;;;;;5010854;28;20076;-42
2021/10/21 00:26:31;;;;;;;3.88;2.78;;;15.20;99.90;;;;;;5009890;28;20018;-38
2021/10/21 00:28:56;;;;;;;8.88;2.90;;;15.20;99.90;;;;;;5011012;28;20022;-45
2021/10/21 00:31:22;;;;;;;5.10;3.70;;;15.30;99.90;;;;;;5009147;28;20052;-44
2021/10/21 00:33:48;;;;;;;6.80;3.72;;;15.30;99.90;;;;;;5010414;28;20022;-43
2021/10/21 00:36:14;;;;;;;4.00;3.03;;;15.30;99.90;;;;;;5009820;28;20084;-43
2021/10/21 00:38:39;;;;;;;4.72;3.00;;;15.30;99.90;;;;;;5013774;28;20022;-46
2021/10/21 00:41:05;;;;;;;4.80;3.55;;;15.30;99.90;;;;;;5012779;28;20072;-41
2021/10/21 00:43:35;;;;;;;4.93;4.28;;;15.20;99.90;;;;;;5013949;28;20030;-39
2021/10/21 00:46:04;;;;;;;5.90;3.53;;;15.20;99.90;;;;;;5014141;28;20040;-40
2021/10/21 00:48:29;;;;;;;3.45;3.17;;;15.10;99.90;;;;;;5013323;28;20133;-43
2021/10/21 00:50:55;;;;;;;5.70;3.58;;;15.20;99.90;;;;;;5012806;28;20041;-44
2021/10/21 00:53:20;;;;;;;3.42;3.17;;;15.10;99.90;;;;;;5013756;28;20117;-43
2021/10/21 00:55:46;;;;;;;6.72;4.30;;;15.20;99.90;;;;;;5013796;28;20483;-44
2021/10/21 00:58:11;;;;;;;3.70;3.40;;;15.20;99.90;;;;;;5013549;28;20029;-44
2021/10/21 01:00:38;;;;;;;3.78;3.28;;;15.20;99.90;;;;;;5012795;28;20022;-43
2021/10/21 01:03:03;;;;;;;7.82;3.60;;;15.20;99.90;;;;;;5013680;28;20398;-44
2021/10/21 01:05:29;;;;;;;5.68;3.58;;;15.30;99.90;;;;;;5013745;28;20026;-47
2021/10/21 01:07:55;;;;;;;5.40;3.63;;;15.30;99.90;;;;;;5012893;28;20401;-43
2021/10/21 01:10:20;;;;;;;6.05;4.47;;;15.40;99.90;;;;;;5013842;28;20084;-41
2021/10/21 01:12:46;;;;;;;10.75;3.85;;;15.40;99.90;;;;;;5013585;28;20076;-43
2021/10/21 01:15:21;;;;;;;3.45;3.08;;;15.40;99.90;;;;;;5013275;28;20474;-44
2021/10/21 01:17:46;;;;;;;3.72;2.83;;;15.40;99.90;;;;;;5012946;28;20032;-44
2021/10/21 01:20:13;;;;;;;3.40;3.10;;;15.50;99.90;;;;;;5013423;28;20109;-47
2021/10/21 01:22:40;;;;;;;5.40;2.97;;;15.50;99.90;;;;;;5013363;28;20022;-46
2021/10/21 01:25:06;;;;;;;3.10;2.70;;;15.50;99.90;;;;;;5013154;28;20033;-44
2021/10/21 01:27:31;;;;;;;4.10;2.33;;;15.60;99.90;;;;;;5011425;28;20545;-44
2021/10/21 01:29:57;;;;;;;2.28;2.08;;;15.60;99.90;;;;;;5013256;28;20030;-42
2021/10/21 01:32:27;;;;;;;3.03;2.40;;;15.70;99.90;;;;;;5013150;28;20030;-40
2021/10/21 01:34:53;;;;;;;5.53;2.40;;;15.70;99.90;;;;;;5013169;28;20068;-38
2021/10/21 01:37:18;;;;;;;2.35;2.15;;;15.80;99.90;;;;;;5011306;28;20105;-42
2021/10/21 01:39:44;;;;;;;4.13;1.88;;;15.80;99.90;;;;;;5013260;28;20447;-43
2021/10/21 01:42:10;;;;;;;2.70;2.50;;;15.90;99.90;;;;;;5012948;28;20112;-44
2021/10/21 01:44:35;;;;;;;3.80;2.70;;;15.90;99.90;;;;;;5013310;28;20086;-45
2021/10/21 01:47:01;;;;;;;3.22;2.33;;;15.90;99.90;;;;;;5012337;28;20033;-40
2021/10/21 01:49:27;;;;;;;2.33;2.13;;;15.90;99.90;;;;;;5012697;28;20091;-45
2021/10/21 01:51:52;;;;;;;3.35;2.33;;;15.90;99.90;;;;;;5012950;28;20030;-43
2021/10/21 01:54:19;;;;;;;3.40;2.70;;;15.80;99.90;;;;;;5012885;28;20522;-43
2021/10/21 01:56:45;;;;;;;3.47;2.95;;;15.80;99.90;;;;;;5012192;28;20036;-43
2021/10/21 01:59:10;;;;;;;8.45;4.15;;;15.70;99.90;;;;;;5013034;28;20026;-40
2021/10/21 02:01:36;;;;;;;7.63;4.18;;;15.60;99.90;;;;;;5012752;28;20018;-48
2021/10/21 02:04:02;;;;;;;7.93;2.65;;;15.40;99.90;;;;;;5012842;28;20022;-45
2021/10/21 02:06:27;;;;;;;7.20;1.73;;;15.10;99.90;;;;;;5011860;28;20022;-44
2021/10/21 02:08:53;;;;;;;3.55;1.80;;;14.90;99.90;;;;;;5013231;28;20104;-44
2021/10/21 02:11:19;;;;;;;6.70;1.65;;;14.70;99.90;;;;;;5012878;28;20108;-41
2021/10/21 02:13:44;;;;;;;2.78;2.10;;;14.60;99.90;;;;;;5013919;28;20038;-42
2021/10/21 02:16:10;;;;;;;9.95;2.83;;;14.60;99.90;;;;;;5012128;28;20042;-45
2021/10/21 02:18:36;;;;;;;2.70;2.13;;;14.60;99.90;;;;;;5012163;28;20036;-48
2021/10/21 02:21:01;;;;;;;2.10;1.90;;;14.70;99.90;;;;;;5012372;28;20438;-44
2021/10/21 02:23:27;;;;;;;8.15;1.55;;;14.70;99.90;;;;;;5012196;28;20080;-42
2021/10/21 02:25:52;;;;;;;1.85;1.10;;;14.80;99.90;;;;;;5012216;28;20053;-47
2021/10/21 02:28:18;;;;;;;2.08;0.98;;;14.70;99.90;;;;;;5011659;28;20487;-47
2021/10/21 02:30:44;;;;;;;8.63;1.00;;;14.70;99.90;;;;;;5012470;28;20022;-43
2021/10/21 02:33:09;;;;;;;3.67;0.80;;;14.70;99.90;;;;;;5012209;28;20052;-43
2021/10/21 02:35:35;;;;;;;0.98;0.98;;;14.60;99.90;;;;;;5012452;28;20064;-43
2021/10/21 02:38:00;;;;;;;3.20;0.90;;;14.60;99.90;;;;;;5011510;28;20061;-44
2021/10/21 02:40:26;;;;;;;1.60;0.75;;;14.60;99.90;;;;;;5012087;28;20105;-45
2021/10/21 02:42:51;;;;;;;1.50;1.40;;;14.50;99.90;;;;;;5012100;28;20364;-43
2021/10/21 02:45:17;;;;;;;2.05;1.02;;;14.50;99.90;;;;;;5012120;28;20553;-44
2021/10/21 02:47:44;;;;;;;4.15;0.75;;;14.60;99.90;;;;;;5011256;28;20026;-43
2021/10/21 02:50:10;;;;;;;5.05;1.40;;;14.60;99.90;;;;;;5011936;28;20395;-38
2021/10/21 02:52:36;;;;;;;4.05;0.60;;;14.60;99.90;;;;;;5011582;28;20029;-43
2021/10/21 02:55:03;;;;;;;1.23;1.13;;;14.60;99.90;;;;;;5011711;28;20049;-45
2021/10/21 02:57:29;;;;;;;4.75;1.55;;;14.60;99.90;;;;;;5009664;28;20029;-40
2021/10/21 02:59:55;;;;;;;1.73;0.90;;;14.60;99.90;;;;;;5011331;28;20026;-46
2021/10/21 03:02:20;;;;;;;3.30;0.80;;;14.60;99.90;;;;;;5010637;28;20083;-39
2021/10/21 03:04:46;;;;;;;2.67;1.23;;;14.50;99.90;;;;;;5012180;28;20030;-45
2021/10/21 03:07:11;;;;;;;3.90;0.93;;;14.50;99.90;;;;;;5010744;28;20046;-45
2021/10/21 03:09:37;;;;;;;2.65;0.90;;;14.50;99.90;;;;;;5011651;28;20022;-48
2021/10/21 03:12:03;;;;;;;2.95;0.80;;;14.40;99.90;;;;;;5011689;28;20018;-44
2021/10/21 03:14:28;;;;;;;1.95;0.77;;;14.40;99.90;;;;;;5011758;28;20029;-43
2021/10/21 03:16:54;;;;;;;3.60;0.82;;;14.50;99.90;;;;;;5009219;28;20044;-43
2021/10/21 03:19:19;;;;;;;13.18;2.70;;;14.40;99.90;;;;;;5011302;28;20025;-45
2021/10/21 03:21:44;;;;;;;5.18;1.08;;;14.40;99.90;;;;;;5011312;28;20105;-45
2021/10/21 03:24:10;;;;;;;8.32;0.85;;;14.40;99.90;;;;;;5011323;28;20022;-40
2021/10/21 03:26:35;;;;;;;1.50;1.00;;;14.40;99.90;;;;;;5010572;28;20166;-43
2021/10/21 03:29:01;;;;;;;4.15;1.10;;;14.40;99.90;;;;;;5011124;28;20034;-45
2021/10/21 03:31:31;;;;;;;2.40;0.98;;;14.30;99.90;;;;;;5010106;28;20064;-43
2021/10/21 03:33:56;;;;;;;9.93;0.90;;;14.40;99.90;;;;;;5011156;28;20495;-45
2021/10/21 03:36:23;;;;;;;6.28;1.60;;;14.40;99.90;;;;;;5010628;28;20029;-44
2021/10/21 03:38:49;;;;;;;2.17;0.85;;;14.40;99.90;;;;;;5011029;28;20018;-41
2021/10/21 03:41:14;;;;;;;1.52;0.60;;;14.30;99.90;;;;;;5011260;28;20026;-42
2021/10/21 03:43:40;;;;;;;10.95;1.52;;;14.40;99.90;;;;;;5009678;28;20025;-45
2021/10/21 03:46:05;;;;;;;6.03;1.42;;;14.40;99.90;;;;;;5011167;28;20040;-46
2021/10/21 03:48:31;;;;;;;2.78;1.00;;;14.40;99.90;;;;;;5010729;28;20060;-42
2021/10/21 03:50:56;;;;;;;5.50;1.02;;;14.40;99.90;;;;;;5010923;28;20056;-46
2021/10/21 03:53:22;;;;;;;1.85;1.23;;;14.40;99.90;;;;;;5010897;28;20121;-48
2021/10/21 03:55:47;;;;;;;4.50;1.45;;;14.40;99.90;;;;;;5011070;28;20018;-45
2021/10/21 03:58:13;;;;;;;7.40;1.35;;;14.40;99.90;;;;;;5010444;28;20353;-43
2021/10/21 04:00:38;;;;;;;5.45;1.00;;;14.40;99.90;;;;;;5010868;28;20034;-42
2021/10/21 04:03:04;;;;;;;5.28;0.88;;;14.40;99.90;;;;;;4993220;28;20032;-45
2021/10/21 04:05:29;;;;;;;4.55;1.02;;;14.50;99.90;;;;;;5010557;28;20446;-41
2021/10/21 04:07:55;;;;;;;3.60;0.85;;;14.50;99.90;;;;;;5010031;28;20098;-44
2021/10/21 04:10:21;;;;;;;5.45;1.40;;;14.50;99.90;;;;;;5010822;28;20029;-48
2021/10/21 04:12:46;;;;;;;7.10;1.40;;;14.50;99.90;;;;;;5014489;28;20029;-45
2021/10/21 04:15:12;;;;;;;4.53;0.93;;;14.50;99.90;;;;;;5014695;28;20029;-47
2021/10/21 04:17:38;;;;;;;5.10;1.67;;;14.60;99.90;;;;;;5012760;28;20064;-38
2021/10/21 04:20:05;;;;;;;6.80;1.17;;;14.60;99.90;;;;;;5014719;28;20060;-47
2021/10/21 04:22:31;;;;;;;6.28;0.98;;;14.60;99.90;;;;;;5014483;28;20364;-43
2021/10/21 04:24:56;;;;;;;9.60;0.93;;;14.60;99.90;;;;;;5014458;28;20426;-45
2021/10/21 04:27:22;;;;;;;16.70;1.27;;;14.60;99.90;;;;;;5013744;28;20037;-47
2021/10/21 04:29:48;;;;;;;12.95;1.88;;;14.60;99.90;;;;;;5014734;28;20104;-45
2021/10/21 04:32:14;;;;;;;6.85;1.58;;;14.60;99.90;;;;;;5013264;28;20025;-44
2021/10/21 04:34:39;;;;;;;11.20;1.80;;;14.60;99.90;;;;;;5014415;28;20058;-43
2021/10/21 04:37:05;;;;;;;3.90;1.67;;;14.60;99.90;;;;;;5013793;28;20537;-43
2021/10/21 04:39:30;;;;;;;9.95;1.92;;;14.60;99.90;;;;;;5014312;28;20024;-45
2021/10/21 04:41:56;;;;;;;6.60;1.42;;;14.60;99.90;;;;;;5014312;28;20025;-42
2021/10/21 04:44:21;;;;;;;15.00;2.28;;;14.60;99.90;;;;;;5014171;28;20514;-43
2021/10/21 04:46:47;;;;;;;5.75;1.75;;;14.60;99.90;;;;;;5014119;28;20028;-39
2021/10/21 04:49:13;;;;;;;6.03;1.25;;;14.60;99.90;;;;;;5014490;28;20058;-44
2021/10/21 04:51:38;;;;;;;9.98;1.60;;;14.50;99.90;;;;;;5014239;28;20419;-43
2021/10/21 04:54:04;;;;;;;5.72;1.27;;;14.50;99.90;;;;;;5014220;28;20483;-42
2021/10/21 04:56:29;;;;;;;12.82;1.70;;;14.50;99.90;;;;;;5013786;28;20030;-42
2021/10/21 04:58:55;;;;;;;10.32;1.40;;;14.50;99.90;;;;;;5013800;28;20236;-45
2021/10/21 05:01:20;;;;;;;7.60;1.65;;;14.40;99.90;;;;;;5012909;28;20110;-43
2021/10/21 05:03:46;;;;;;;9.88;2.67;;;14.40;99.90;;;;;;5013822;28;20029;-39
2021/10/21 05:06:12;;;;;;;5.85;1.33;;;14.20;99.90;;;;;;5013118;28;20057;-41
2021/10/21 05:08:37;;;;;;;8.48;1.17;;;14.20;99.90;;;;;;5014089;28;20030;-47
2021/10/21 05:11:03;;;;;;;10.48;2.53;;;14.20;99.90;;;;;;5013772;28;20064;-46
2021/10/21 05:13:29;;;;;;;8.40;1.40;;;14.10;99.90;;;;;;5013861;28;20369;-44
2021/10/21 05:15:54;;;;;;;6.82;1.77;;;14.00;99.90;;;;;;5025782;23;20885;-49
2021/10/21 05:18:20;;;;;;;10.38;2.35;;;13.90;99.90;;;;;;4991747;28;20054;-48
2021/10/21 05:20:45;;;;;;;7.07;2.00;;;13.80;99.90;;;;;;4993820;28;20030;-50
2021/10/21 05:23:11;;;;;;;8.65;0.95;;;13.80;99.90;;;;;;4993226;28;20084;-48
2021/10/21 05:25:36;;;;;;;5.35;1.60;;;13.80;99.90;;;;;;4993552;28;20111;-48
2021/10/21 05:28:02;;;;;;;11.45;1.38;;;13.80;99.90;;;;;;4992894;28;20484;-47
2021/10/21 05:30:28;;;;;;;12.05;1.63;;;13.90;99.90;;;;;;4993568;28;20428;-51
2021/10/21 05:32:54;;;;;;;5.10;1.30;;;13.90;99.90;;;;;;4993344;28;20035;-51
2021/10/21 05:35:20;;;;;;;12.50;2.03;;;13.90;99.90;;;;;;4993338;28;20499;-48
2021/10/21 05:37:45;;;;;;;9.93;1.50;;;13.90;99.90;;;;;;4991554;28;20019;-50
2021/10/21 05:40:11;;;;;;;7.00;2.17;;;14.00;99.90;;;;;;4993408;28;20122;-47
2021/10/21 05:42:36;;;;;;;9.75;1.58;;;14.00;99.90;;;;;;4993290;28;20034;-49
2021/10/21 05:45:03;;;;;;;5.43;1.20;;;14.00;99.90;;;;;;4993304;28;20125;-48
2021/10/21 05:47:28;;;;;;;9.93;1.38;;;14.00;99.90;;;;;;4992393;28;20030;-47
2021/10/21 05:49:54;;;;;;;7.50;1.35;;;14.00;99.90;;;;;;4993179;28;20027;-48
2021/10/21 05:52:24;;;;;;;3.95;1.38;;;14.10;99.90;;;;;;4993271;28;20468;-48
2021/10/21 05:54:50;;;;;;;12.43;1.15;;;14.10;99.90;;;;;;4993107;28;20101;-46
2021/10/21 05:57:15;;;;;;;7.72;1.05;;;14.20;99.90;;;;;;4992292;28;20398;-48
2021/10/21 05:59:41;;;;;;;9.00;1.60;;;14.10;99.50;;;;;;4993122;28;20030;-49
2021/10/21 06:02:06;;;;;;;6.57;1.02;;;14.20;99.60;;;;;;4993009;28;20034;-47
2021/10/21 06:04:32;;;;;;;7.05;1.00;;;14.20;99.90;;;;;;4992938;28;20109;-47
2021/10/21 06:06:57;;;;;;;8.45;1.00;;;14.20;99.90;;;;;;4990462;28;20034;-47
2021/10/21 06:09:23;;;;;;;10.93;1.35;;;14.20;99.90;;;;;;4992692;28;20022;-48
2021/10/21 06:11:50;;;;;;;9.20;1.50;;;14.10;99.90;;;;;;4989894;28;20034;-46
2021/10/21 06:14:16;;;;;;;8.00;1.50;;;14.10;99.90;;;;;;4977634;28;20054;-49
2021/10/21 06:16:43;;;;;;;6.50;2.05;;;14.10;99.90;;;;;;4991886;28;20042;-47
2021/10/21 06:19:09;;;;;;;7.32;1.50;;;14.10;99.90;;;;;;4978241;28;20065;-48
2021/10/21 06:21:34;;;;;;;5.30;1.10;;;14.10;99.90;;;;;;4974215;28;20026;-46
2021/10/21 06:24:00;;;;;;;8.57;1.45;;;14.10;99.90;;;;;;4991407;28;20038;-49
2021/10/21 06:26:27;;;;;;;9.60;1.20;;;14.10;99.90;;;;;;4991392;28;20082;-49
2021/10/21 06:28:52;;;;;;;7.10;1.20;;;14.00;99.90;;;;;;4992437;28;20030;-47
2021/10/21 06:31:20;;;;;;;5.25;0.98;;;14.00;99.90;;;;;;4989458;28;20061;-47
2021/10/21 06:33:46;;;;;;;2.03;0.70;;;13.90;99.90;;;;;;4987744;28;20030;-46
2021/10/21 06:36:11;;;;;;;6.05;0.88;;;13.80;99.90;;;;;;4972784;28;20052;-45
2021/10/21 06:38:38;;;;;;;8.30;1.58;;;13.80;99.90;;;;;;4984496;28;20094;-48
2021/10/21 06:41:04;;;;;;;4.35;1.70;;;13.70;99.90;;;;;;4974832;28;20391;-47
2021/10/21 06:43:30;;;;;;;3.08;1.13;;;13.70;99.90;;;;;;4992477;28;20035;-47
2021/10/21 06:45:56;;;;;;;5.05;1.15;;;13.60;99.90;;;;;;4990861;28;20117;-46
2021/10/21 06:48:21;;;;;;;5.82;0.85;;;13.60;99.90;;;;;;4991632;28;20146;-50
2021/10/21 06:50:46;;;;;;;2.58;0.65;;;13.60;99.90;;;;;;4989539;28;20045;-49
2021/10/21 06:53:12;;;;;;;7.43;0.73;;;13.60;99.90;;;;;;4978178;28;20029;-48
2021/10/21 06:55:37;;;;;;;4.57;0.60;;;13.60;99.90;;;;;;4992017;28;20073;-50
2021/10/21 06:58:03;;;;;;;3.80;1.23;;;13.60;99.90;;;;;;4981133;28;20026;-50
2021/10/21 07:00:37;;;;;;;3.45;0.70;;;13.60;99.90;;;;;;4972445;28;20381;-46
2021/10/21 07:03:02;;;;;;;1.25;0.80;;;13.60;99.90;;;;;;4971631;28;20480;-44
2021/10/21 07:05:29;;;;;;;5.82;0.60;;;13.50;99.90;;;;;;4986667;28;20042;-45
2021/10/21 07:07:54;;;;;;;3.35;1.15;;;13.50;99.90;;;;;;4989710;28;20022;-46
2021/10/21 07:10:22;;;;;;;6.80;0.70;;;13.40;99.90;;;;;;4991614;28;20535;-48
2021/10/21 07:12:47;;;;;;;3.83;0.60;;;13.40;99.90;;;;;;4991563;28;20069;-49
2021/10/21 07:15:15;;;;;;;8.13;0.75;;;13.30;99.90;;;;;;4991522;28;20476;-46
2021/10/21 07:17:41;;;;;;;2.00;0.63;;;13.20;99.90;;;;;;4990646;28;20042;-48
2021/10/21 07:20:08;;;;;;;2.92;0.60;;;13.20;99.90;;;;;;4991714;28;20030;-50
2021/10/21 07:22:34;;;;;;;1.48;1.00;;;13.10;99.90;;;;;;4991210;28;20400;-47
2021/10/21 07:25:00;;;;;;;2.17;0.82;;;13.10;99.90;;;;;;4982508;28;20027;-44
2021/10/21 07:27:25;;;;;;;2.15;0.80;;;13.10;99.90;;;;;;4985523;28;20229;-44
2021/10/21 07:29:51;;;;;;;0.50;0.50;;;13.10;99.90;;;;;;4991536;28;21603;-44
2021/10/21 07:32:16;;;;;;;2.45;0.40;;;13.00;99.90;;;;;;4991420;28;20026;-47
2021/10/21 07:34:42;;;;;;;2.60;0.30;;;13.10;99.90;;;;;;4991499;28;20391;-46
2021/10/21 07:37:11;;;;;;;3.25;0.95;;;13.10;99.90;;;;;;4990899;28;20026;-48
2021/10/21 07:39:37;;;;;;;3.00;0.50;;;13.10;99.90;;;;;;4991346;28;20166;-50
2021/10/21 07:42:03;;;;;;;0.85;0.40;;;13.10;99.90;;;;;;4985918;28;20027;-47
2021/10/21 07:44:35;;;;;;;1.45;0.30;;;13.10;99.90;;;;;;4983309;28;20030;-50
2021/10/21 07:47:02;;;;;;;4.35;0.68;;;13.10;99.90;;;;;;4982675;28;20023;-49
2021/10/21 07:49:28;;;;;;;2.40;0.63;;;13.10;99.90;;;;;;4976693;28;20030;-50
2021/10/21 07:51:55;;;;;;;1.27;0.50;;;13.10;99.90;;;;;;4991079;28;20110;-51
2021/10/21 07:54:24;;;;;;;3.40;0.40;;;13.20;99.90;;;;;;4990914;28;20511;-49
2021/10/21 07:56:50;;;;;;;0.85;0.57;;;13.20;99.90;;;;;;4990283;28;20022;-50
2021/10/21 07:59:15;;;;;;;1.00;0.30;;;13.20;99.90;;;;;;4991140;28;20042;-51
2021/10/21 08:01:41;;;;;;;0.20;0.20;;;13.30;99.90;;;;;;4991079;28;20106;-47
2021/10/21 08:04:09;;;;;;;0.52;0.20;;;13.30;99.90;;;;;;4990452;28;20023;-48
2021/10/21 08:06:34;;;;;;;0.73;0.30;;;13.40;99.90;;;;;;4987697;28;20045;-49
2021/10/21 08:09:03;;;;;;;2.13;0.40;;;13.30;99.90;;;;;;4977361;28;20039;-46
2021/10/21 08:11:28;;;;;;;0.77;0.43;;;13.40;99.90;;;;;;4974509;28;20106;-47
2021/10/21 08:13:54;;;;;;;0.73;0.35;;;13.40;99.90;;;;;;4987742;28;20033;-46
2021/10/21 08:16:19;;;;;;;2.28;0.40;;;13.40;99.90;;;;;;4985412;28;20378;-49
2021/10/21 08:18:45;;;;;;;1.88;0.47;;;13.30;99.90;;;;;;4971498;28;20031;-51
2021/10/21 08:21:10;;;;;;;3.03;0.30;;;13.40;99.90;;;;;;4973578;28;20031;-53
2021/10/21 08:23:37;;;;;;;1.35;0.60;;;13.40;99.90;;;;;;4987708;28;20038;-47
2021/10/21 08:26:02;;;;;;;1.17;0.50;;;13.30;99.90;;;;;;4972563;28;20034;-51
2021/10/21 08:28:28;;;;;;;2.88;0.85;;;13.30;99.90;;;;;;4970683;28;20031;-49
2021/10/21 08:30:53;;;;;;;1.33;0.47;;;13.20;99.90;;;;;;4971340;28;20026;-48
2021/10/21 08:33:19;;;;;;;0.88;0.40;;;13.10;99.90;;;;;;4969597;28;20219;-48
2021/10/21 08:35:44;;;;;;;2.55;0.55;;;13.00;99.90;;;;;;4969831;28;20027;-49
2021/10/21 08:38:10;;;;;;;1.02;0.40;;;13.00;99.90;;;;;;4970602;28;20031;-50
2021/10/21 08:40:37;;;;;;;2.83;0.77;;;13.00;99.90;;;;;;4971240;28;20023;-51
2021/10/21 08:43:07;;;;;;;6.65;0.70;;;12.90;99.90;;;;;;4971157;28;20481;-47
2021/10/21 08:45:33;;;;;;;2.25;0.85;;;13.00;99.90;;;;;;4971090;28;20030;-45
2021/10/21 08:48:02;;;;;;;2.20;0.68;;;12.90;99.90;;;;;;4970547;28;20126;-48
2021/10/21 08:50:30;;;;;;;1.42;0.63;;;13.00;99.90;;;;;;4971182;28;20332;-47
2021/10/21 08:52:56;;;;;;;1.65;0.88;;;13.00;99.90;;;;;;4970900;28;20066;-47
2021/10/21 08:55:21;;;;;;;1.73;0.70;;;13.00;99.90;;;;;;4971008;28;20069;-47
2021/10/21 08:57:47;;;;;;;3.53;0.82;;;13.00;99.90;;;;;;4971043;28;20031;-47
2021/10/21 09:00:13;;;;;;;1.45;0.60;;;13.10;99.90;;;;;;4975095;28;20073;-47
2021/10/21 09:05:29;;;;;;;1.40;1.00;;;13.20;99.90;;;;;;4974950;28;20108;-52
2021/10/21 09:08:11;;;;;;;2.20;0.73;;;13.20;99.90;;;;;;4992985;28;20026;-51
2021/10/21 09:10:54;;;;;;;4.72;1.02;;;13.10;99.90;;;;;;4990808;28;20042;-47
2021/10/21 09:13:20;;;;;;;3.10;0.88;;;13.20;99.90;;;;;;4993062;28;20022;-50
2021/10/21 09:15:49;;;;;;;6.72;0.60;;;13.20;99.90;;;;;;4992584;28;20041;-47
2021/10/21 09:18:15;;;;;;;2.42;1.15;;;13.20;99.90;;;;;;4984905;28;20035;-47
2021/10/21 09:20:46;;;;;;;4.00;0.70;;;13.20;99.90;;;;;;4986584;28;20034;-45
2021/10/21 09:23:16;;;;;;;3.97;0.82;;;13.20;99.90;;;;;;4980422;28;20038;-49
2021/10/21 09:25:43;;;;;;;2.85;0.60;;;13.20;99.90;;;;;;4993082;28;20030;-50
2021/10/21 09:28:22;;;;;;;2.55;1.00;;;13.20;99.90;;;;;;4992391;28;20026;-48
2021/10/21 09:31:06;;;;;;;6.65;1.08;;;13.10;99.90;;;;;;4990899;28;20522;-48
2021/10/21 09:33:42;;;;;;;5.97;0.80;;;13.20;99.90;;;;;;4973953;28;20066;-49
2021/10/21 09:36:08;;;;;;;4.18;0.93;;;13.20;99.90;;;;;;4976016;28;20035;-48
2021/10/21 09:38:34;;;;;;;6.53;1.10;;;13.10;99.90;;;;;;4993039;28;20037;-49
2021/10/21 09:41:24;;;;;;;6.72;1.45;;;13.20;99.90;;;;;;4991662;28;20109;-48
2021/10/21 09:43:51;;;;;;;5.22;1.25;;;13.20;99.90;;;;;;4977456;28;20038;-48
2021/10/21 09:46:38;;;;;;;5.88;1.02;;;13.10;99.90;;;;;;4983388;28;20084;-48
2021/10/21 09:49:28;;;;;;;6.13;1.00;;;13.20;99.90;;;;;;4993108;28;20555;-49
2021/10/21 09:51:55;;;;;;;9.02;0.80;;;13.10;99.90;;;;;;4993134;28;20034;-49
2021/10/21 09:54:21;;;;;;;3.08;0.65;;;13.10;99.90;;;;;;4991604;28;20496;-49
2021/10/21 09:57:06;;;;;;;1.92;0.60;;;13.10;99.90;;;;;;4990567;28;20054;-47
2021/10/21 09:59:35;;;;;;;7.40;1.33;;;13.10;99.90;;;;;;4987254;28;20022;-46
2021/10/21 10:02:21;;;;;;;2.38;1.00;;;13.10;99.90;;;;;;4985604;28;20595;-46
2021/10/21 10:04:52;;;;;;;5.28;1.00;;;13.10;99.90;;;;;;4993332;28;20092;-47
2021/10/21 10:07:19;;;;;;;2.28;0.63;;;13.20;99.90;;;;;;4985825;28;20691;-50
2021/10/21 10:09:46;;;;;;;0.95;0.77;;;13.20;99.60;;;;;;4973355;28;20038;-48
2021/10/21 10:12:12;;;;;;;2.72;1.08;;;13.20;99.30;;;;;;4972857;28;20034;-49
2021/10/21 10:14:43;;;;;;;6.35;1.65;;;13.30;99.30;;;;;;4976972;28;20093;-47
2021/10/21 10:17:11;;;;;;;6.53;1.13;;;13.30;98.70;;;;;;4983671;28;20050;-49
2021/10/21 10:19:44;;;;;;;1.73;0.93;;;13.30;98.20;;;;;;4981222;28;20062;-46
2021/10/21 10:22:17;;;;;;;5.32;1.20;;;13.40;98.60;;;;;;4983342;28;20030;-48
2021/10/21 10:24:43;;;;;;;4.78;0.95;;;13.50;98.50;;;;;;4988533;28;20033;-45
2021/10/21 10:27:29;;;;;;;5.13;1.00;;;13.50;98.70;;;;;;4989728;28;20026;-45
2021/10/21 10:29:57;;;;;;;5.10;1.00;;;13.60;98.50;;;;;;4976883;28;20054;-46
2021/10/21 10:32:38;;;;;;;7.78;1.13;;;13.60;98.90;;;;;;4980177;28;20477;-45
2021/10/21 10:35:29;;;;;;;2.78;1.00;;;13.70;98.90;;;;;;4989186;28;20108;-43
2021/10/21 10:37:57;;;;;;;1.10;0.93;;;13.80;99.20;;;;;;4991849;28;20023;-43
2021/10/21 10:40:57;;;;;;;3.90;0.85;;;13.90;99.30;;;;;;4992360;28;20029;-46
2021/10/21 10:43:39;;;;;;;1.98;1.00;;;13.90;99.00;;;;;;4991927;28;20037;-44
2021/10/21 10:46:04;;;;;;;2.65;1.48;;;13.90;98.90;;;;;;4992354;28;20064;-46
2021/10/21 10:48:51;;;;;;;8.75;1.17;;;14.00;98.50;;;;;;4990037;28;20030;-50
2021/10/21 10:51:17;;;;;;;6.35;1.77;;;13.80;98.60;;;;;;4985028;28;20041;-46
2021/10/21 10:53:50;;;;;;;8.05;1.20;;;13.90;98.60;;;;;;4972299;28;20027;-47
2021/10/21 10:56:37;;;;;;;2.92;1.23;;;14.00;98.60;;;;;;4975712;28;20026;-46
2021/10/21 10:59:16;;;;;;;4.68;1.17;;;14.30;98.60;;;;;;4989286;28;20121;-50
2021/10/21 11:01:42;;;;;;;4.72;1.73;;;14.50;98.00;;;;;;4982622;28;20027;-48
2021/10/21 11:04:08;;;;;;;7.85;0.90;;;14.60;97.80;;;;;;4977460;28;20484;-49
2021/10/21 11:06:34;;;;;;;5.35;1.10;;;14.60;98.00;;;;;;4989552;28;20101;-48
2021/10/21 11:09:11;;;;;;;5.38;1.20;;;14.60;98.30;;;;;;4978985;28;20042;-49
2021/10/21 11:11:38;;;;;;;9.85;1.35;;;14.60;98.20;;;;;;4991653;28;20036;-48
2021/10/21 11:14:15;;;;;;;7.63;1.00;;;14.60;98.20;;;;;;4981241;28;20449;-49
2021/10/21 11:16:54;;;;;;;5.80;1.88;;;14.70;98.40;;;;;;4971691;28;20039;-51
2021/10/21 11:19:45;;;;;;;8.05;2.45;;;14.80;98.40;;;;;;4975856;28;20031;-47
2021/10/21 11:24:59;;;;;;;5.47;1.10;;;14.60;97.90;;;;;;5001540;28;20124;-44
2021/10/21 11:27:31;;;;;;;6.88;1.42;;;14.50;98.40;;;;;;4999471;28;20061;-39
2021/10/21 11:30:07;;;;;;;5.90;2.83;;;14.40;98.70;;;;;;5006979;28;20461;-45
2021/10/21 11:32:34;;;;;;;4.80;1.45;;;14.40;98.50;;;;;;5010234;28;20088;-47
2021/10/21 11:35:04;;;;;;;6.75;0.95;;;14.40;99.10;;;;;;4996622;28;20480;-43
2021/10/21 11:37:50;;;;;;;5.38;1.27;;;14.50;98.80;;;;;;5004123;28;20033;-42
2021/10/21 11:40:24;;;;;;;12.60;2.22;;;14.60;99.20;;;;;;5010786;28;20514;-43
2021/10/21 11:42:58;;;;;;;10.43;2.35;;;14.60;98.50;;;;;;5011256;28;20022;-50
2021/10/21 11:45:32;;;;;;;8.75;2.13;;;14.60;97.80;;;;;;5011073;28;20038;-44
2021/10/21 11:48:02;;;;;;;5.10;1.60;;;14.60;98.00;;;;;;5010534;28;20054;-47
2021/10/21 11:50:32;;;;;;;4.78;1.35;;;14.60;97.40;;;;;;5011966;28;20458;-41
2021/10/21 11:52:57;;;;;;;9.68;1.73;;;14.60;96.90;;;;;;5011922;28;20519;-41
2021/10/21 11:55:26;;;;;;;11.07;1.75;;;14.70;97.30;;;;;;5010783;28;20052;-41
2021/10/21 11:58:07;;;;;;;5.00;1.25;;;14.80;96.60;;;;;;5010419;28;20435;-45
2021/10/21 12:00:32;;;;;;;10.13;2.03;;;14.80;96.40;;;;;;5011049;28;20061;-41
2021/10/21 12:03:00;;;;;;;10.77;1.50;;;14.90;96.50;;;;;;5010643;28;20065;-47
2021/10/21 12:05:26;;;;;;;4.53;1.60;;;15.10;96.10;;;;;;5009362;28;20559;-43
2021/10/21 12:07:52;;;;;;;5.10;2.15;;;15.10;95.90;;;;;;5010207;28;20042;-43
2021/10/21 12:10:31;;;;;;;6.25;1.27;;;15.10;95.40;;;;;;5010970;28;20510;-43
2021/10/21 12:12:57;;;;;;;4.10;1.50;;;15.00;95.30;;;;;;5011323;28;20092;-45
2021/10/21 12:15:24;;;;;;;11.95;1.65;;;15.00;95.10;;;;;;5011400;28;20022;-45
2021/10/21 12:17:50;;;;;;;8.25;1.85;;;15.00;95.90;;;;;;5009832;28;20022;-44
2021/10/21 12:20:35;;;;;;;6.53;2.20;;;15.00;95.00;;;;;;5010984;28;20393;-45
2021/10/21 12:23:01;;;;;;;10.45;1.77;;;14.90;95.10;;;;;;5003577;28;20037;-40
2021/10/21 12:25:33;;;;;;;6.90;1.60;;;14.80;95.20;;;;;;4996970;28;20400;-44
2021/10/21 12:28:03;;;;;;;5.90;1.80;;;14.70;95.20;;;;;;4992171;28;20514;-38
2021/10/21 12:30:34;;;;;;;7.25;1.70;;;14.60;95.60;;;;;;5002231;28;20510;-39
2021/10/21 12:33:10;;;;;;;6.70;2.45;;;14.50;95.90;;;;;;4991516;28;20058;-40
2021/10/21 12:35:51;;;;;;;13.10;1.73;;;14.60;96.20;;;;;;5010955;28;20065;-40
2021/10/21 12:38:16;;;;;;;9.05;2.70;;;14.70;96.00;;;;;;5014573;28;20030;-42
2021/10/21 12:40:42;;;;;;;8.35;1.48;;;14.80;96.10;;;;;;5011437;28;20038;-42
2021/10/21 12:43:12;;;;;;;7.63;1.60;;;14.80;96.20;;;;;;5014001;28;20468;-41
2021/10/21 12:45:37;;;;;;;6.80;1.42;;;14.80;96.30;;;;;;5014072;28;20022;-42
2021/10/21 12:48:20;;;;;;;9.43;2.80;;;14.80;96.60;;;;;;5014294;28;20034;-47
2021/10/21 12:50:45;;;;;;;10.55;2.10;;;14.80;96.30;;;;;;5014114;28;20026;-44
2021/10/21 12:53:11;;;;;;;11.70;2.08;;;14.80;95.20;;;;;;5009197;28;20042;-47
2021/10/21 12:55:37;;;;;;;7.53;1.67;;;14.80;94.50;;;;;;5000745;28;20054;-45